Ana Sayfa
METAR-TAF:

METAR-TAF

Havaalanları :

Lancaster Airport

Lancaster, Pensilvanya, Amerika Birleşik Devletleri

Enlem: 40-07-13N, Boylam: 076-17-40W, yükseklik: 123 m

Güncel hava durumu gözlemi

Rapor saat 04:53 UTC de 38 dakika önce yapıldı.
Sakin rüzgar
Sıcaklık 2°C
Nem 40%
Basınç 1018 hPa
Görüş mesafesi: 16.1 km
Açık gökyüzü

METAR: KLNS 240453Z AUTO 00000KT 10SM CLR 02/M10 A3007 RMK AO2 SLP185 T00221100 401441061

Saat: 00:31 (05:31 UTC)

Tahmin

Rapor saat 03:10 UTC de 2 saat ve 21 dakika önce yapıldı.
Ayın 24'si saat 03 UTC'den ayın 24'si saat 24 UTC'ye kadar geçerli Tahmin
Rüzgar güneydan 4 kt
Görüş mesafesi: 10 km
Açık gökyüzü
Ayın 24'si saat 1800 UTC'den
Rüzgar değişken yönden 3 kt
Görüş mesafesi: 10 km
25000 ft yükseklikte çok bulutlu

TAF: KLNS 240310Z 2403/2424 19004KT P6SM SKC FM241800 VRB03KT P6SM OVC250

4.000'den fazla havaalanı için hava durumu gözlemleri ve tahminleri (METAR ve TAF raporları).

Kullanılabilir istasyonlar harita üzerinde sarı ve kırmızı noktalarla gösterilir.

İstasyonun adını görmek için fareyi noktanın üzerinde gezdirin.

Sonrasında hava gözlem ve tahminlerini görmek için tıklayın.

Haritayı değiştirmek için: yaklaştırmak için siyah artı işaretli yeşil düğmeye ve uzaklaştırmak için de eksi işaretli düğmeye hızla tıklayın; bitişik haritalar için yeşil okları kullanın.


METAR-TAF: